createdAt,value
2022-09-26T00:01:56.363Z,8.40
2022-09-26T00:04:33.497Z,8.40
2022-09-26T00:07:09.838Z,8.38
2022-09-26T00:09:46.061Z,8.30
2022-09-26T00:12:22.590Z,8.30
2022-09-26T00:14:59.036Z,8.20
2022-09-26T00:17:35.691Z,8.10
2022-09-26T00:20:13.872Z,8.10
2022-09-26T00:22:50.300Z,8.08
2022-09-26T00:25:27.165Z,8.00
2022-09-26T00:28:03.851Z,8.00
2022-09-26T00:30:44.710Z,8.00
2022-09-26T00:33:21.478Z,7.90
2022-09-26T00:35:59.202Z,7.90
2022-09-26T00:38:36.168Z,7.90
2022-09-26T00:41:13.645Z,7.88
2022-09-26T00:43:54.987Z,7.80
2022-09-26T00:46:38.472Z,7.80
2022-09-26T00:49:36.002Z,7.80
2022-09-26T00:52:21.721Z,7.80
2022-09-26T00:55:04.051Z,7.76
2022-09-26T00:57:48.546Z,7.70
2022-09-26T01:00:27.396Z,7.70
2022-09-26T01:03:04.579Z,7.70
2022-09-26T01:05:41.358Z,7.70
2022-09-26T01:08:23.205Z,7.70
2022-09-26T01:10:58.702Z,7.70
2022-09-26T01:13:39.178Z,7.60
2022-09-26T01:16:15.419Z,7.60
2022-09-26T01:18:52.441Z,7.60
2022-09-26T01:22:13.522Z,7.60
2022-09-26T01:25:13.879Z,7.60
2022-09-26T01:28:20.112Z,7.60
2022-09-26T01:31:08.373Z,7.60
2022-09-26T01:34:11.157Z,7.60
2022-09-26T01:37:10.861Z,7.70
2022-09-26T01:40:04.417Z,7.70
2022-09-26T01:42:55.058Z,7.80
2022-09-26T01:45:44.440Z,7.80
2022-09-26T01:48:35.055Z,7.90
2022-09-26T01:51:21.416Z,7.90
2022-09-26T01:54:07.478Z,8.00
2022-09-26T01:56:48.060Z,8.06
2022-09-26T01:59:30.641Z,8.10
2022-09-26T02:02:20.484Z,8.10
2022-09-26T02:05:04.120Z,8.20
2022-09-26T02:07:48.399Z,8.20
2022-09-26T02:10:31.768Z,8.20
2022-09-26T02:13:19.213Z,8.20
2022-09-26T02:16:03.133Z,8.20
2022-09-26T02:18:46.517Z,8.20
2022-09-26T02:21:26.268Z,8.20
2022-09-26T02:24:03.199Z,8.20
2022-09-26T02:26:42.292Z,8.20
2022-09-26T02:29:20.751Z,8.10
2022-09-26T02:32:06.298Z,8.10
2022-09-26T02:34:44.258Z,8.10
2022-09-26T02:37:23.396Z,8.10
2022-09-26T02:40:01.258Z,8.10
2022-09-26T02:42:51.889Z,8.10
2022-09-26T02:45:41.861Z,8.10
2022-09-26T02:48:47.009Z,8.10
2022-09-26T02:51:54.598Z,8.10
2022-09-26T02:54:46.527Z,8.10
2022-09-26T02:57:41.769Z,8.20
2022-09-26T03:00:24.881Z,8.20
2022-09-26T03:03:14.751Z,8.30
2022-09-26T03:05:56.155Z,8.30
2022-09-26T03:08:38.891Z,8.30
2022-09-26T03:11:21.780Z,8.30
2022-09-26T03:14:00.593Z,8.38
2022-09-26T03:16:45.772Z,8.40
2022-09-26T03:19:33.356Z,8.40
2022-09-26T03:22:10.217Z,8.40
2022-09-26T03:24:49.402Z,8.48
2022-09-26T03:27:26.927Z,8.50
2022-09-26T03:30:04.486Z,8.50
2022-09-26T03:32:43.411Z,8.50
2022-09-26T03:35:20.946Z,8.50
2022-09-26T03:37:57.782Z,8.60
2022-09-26T03:40:46.818Z,8.60
2022-09-26T03:43:44.087Z,8.60
2022-09-26T03:46:20.785Z,8.62
2022-09-26T03:48:57.218Z,8.68
2022-09-26T03:51:34.301Z,8.70
2022-09-26T03:54:12.459Z,8.70
2022-09-26T03:56:48.679Z,8.70
2022-09-26T03:59:26.330Z,8.70
2022-09-26T04:02:02.850Z,8.80
2022-09-26T04:04:40.633Z,8.80
2022-09-26T04:07:18.096Z,8.80
2022-09-26T04:09:54.299Z,8.80
2022-09-26T04:12:30.488Z,8.80
2022-09-26T04:15:07.694Z,8.80
2022-09-26T04:17:44.210Z,8.80
2022-09-26T04:20:20.800Z,8.80
2022-09-26T04:22:57.416Z,8.80
2022-09-26T04:25:37.644Z,8.80
2022-09-26T04:28:13.883Z,8.80
2022-09-26T04:30:50.710Z,8.80
2022-09-26T04:33:28.740Z,8.80
2022-09-26T04:36:18.213Z,8.80
2022-09-26T04:38:55.362Z,8.80
2022-09-26T04:41:32.810Z,8.80
2022-09-26T04:44:12.833Z,8.88
2022-09-26T04:46:49.575Z,8.90
2022-09-26T04:49:26.165Z,8.90
2022-09-26T04:52:02.919Z,8.90
2022-09-26T04:54:39.216Z,9.00
2022-09-26T04:57:19.574Z,9.00
2022-09-26T04:59:56.356Z,9.10
2022-09-26T05:02:32.665Z,9.10
2022-09-26T05:05:10.489Z,9.14
2022-09-26T05:07:47.496Z,9.20
2022-09-26T05:10:23.815Z,9.20
2022-09-26T05:13:07.696Z,9.24
2022-09-26T05:15:45.702Z,9.30
2022-09-26T05:18:23.416Z,9.40
2022-09-26T05:21:01.404Z,9.40
2022-09-26T05:23:56.603Z,9.40
2022-09-26T05:26:45.103Z,9.40
2022-09-26T05:29:21.938Z,9.46
2022-09-26T05:32:01.518Z,9.50
2022-09-26T05:34:40.552Z,9.56
2022-09-26T05:37:17.113Z,9.60
2022-09-26T05:40:11.310Z,9.64
2022-09-26T05:42:50.654Z,9.70
2022-09-26T05:45:27.457Z,9.80
2022-09-26T05:48:03.972Z,9.80
2022-09-26T05:50:43.444Z,9.90
2022-09-26T05:53:20.334Z,9.90
2022-09-26T05:55:57.459Z,10.00
2022-09-26T05:58:44.969Z,10.08
2022-09-26T06:01:26.752Z,10.10
2022-09-26T06:04:05.823Z,10.10
2022-09-26T06:06:50.937Z,10.20
2022-09-26T06:09:27.188Z,10.24
2022-09-26T06:12:21.483Z,10.30
2022-09-26T06:14:58.169Z,10.32
2022-09-26T06:17:34.363Z,10.40
2022-09-26T06:20:13.354Z,10.40
2022-09-26T06:22:49.803Z,10.48
2022-09-26T06:25:26.854Z,10.50
2022-09-26T06:28:03.912Z,10.54
2022-09-26T06:30:40.325Z,10.60
2022-09-26T06:33:22.090Z,10.70
2022-09-26T06:36:41.435Z,10.80
2022-09-26T06:39:18.039Z,10.86
2022-09-26T06:41:57.138Z,10.92
2022-09-26T06:45:23.642Z,11.10
2022-09-26T06:48:52.955Z,11.20
2022-09-26T06:52:30.081Z,11.30
2022-09-26T06:55:09.535Z,11.38
2022-09-26T06:57:46.965Z,11.44
2022-09-26T07:00:23.438Z,11.50
2022-09-26T07:03:16.118Z,11.60
2022-09-26T07:06:00.756Z,11.60
2022-09-26T07:09:00.990Z,11.70
2022-09-26T07:12:13.717Z,11.80
2022-09-26T07:14:51.364Z,12.00
2022-09-26T07:17:37.857Z,12.10
2022-09-26T07:20:20.077Z,12.20
2022-09-26T07:23:16.545Z,12.30
2022-09-26T07:25:53.280Z,12.40
2022-09-26T07:28:30.496Z,12.50
2022-09-26T07:31:07.751Z,12.58
2022-09-26T07:33:52.946Z,12.60
2022-09-26T07:36:29.140Z,12.60
2022-09-26T07:39:05.505Z,12.70
2022-09-26T07:41:41.923Z,12.70
2022-09-26T07:45:09.296Z,12.80
2022-09-26T07:47:32.945Z,12.90
2022-09-26T07:50:15.706Z,12.90
2022-09-26T07:53:01.354Z,13.00
2022-09-26T07:55:57.731Z,13.10
2022-09-26T07:58:54.551Z,13.20
2022-09-26T08:01:47.402Z,13.40
2022-09-26T08:04:47.872Z,13.50
2022-09-26T08:07:24.691Z,13.60
2022-09-26T08:10:09.285Z,13.70
2022-09-26T08:13:38.916Z,13.84
2022-09-26T08:16:28.763Z,13.90
2022-09-26T08:19:08.799Z,13.94
2022-09-26T08:21:45.480Z,13.98
2022-09-26T08:24:22.671Z,14.00
2022-09-26T08:27:18.096Z,13.94
2022-09-26T08:29:56.873Z,13.90
2022-09-26T08:32:33.521Z,13.90
2022-09-26T08:35:12.289Z,13.90
2022-09-26T08:38:04.613Z,13.90
2022-09-26T08:41:41.561Z,13.82
2022-09-26T08:46:01.866Z,13.80
2022-09-26T08:50:02.817Z,13.80
2022-09-26T08:52:51.983Z,13.76
2022-09-26T08:55:35.228Z,13.70
2022-09-26T08:58:20.029Z,13.70
2022-09-26T09:01:05.586Z,13.60
2022-09-26T09:04:08.145Z,13.60
2022-09-26T09:06:45.297Z,13.60
2022-09-26T09:09:22.381Z,13.50
2022-09-26T09:12:31.971Z,13.50
2022-09-26T09:15:54.066Z,13.50
2022-09-26T09:18:57.167Z,13.40
2022-09-26T09:22:26.950Z,13.40
2022-09-26T09:25:23.387Z,13.40
2022-09-26T09:28:32.584Z,13.36
2022-09-26T09:31:12.951Z,13.30
2022-09-26T09:34:17.303Z,13.30
2022-09-26T09:37:22.228Z,13.30
2022-09-26T09:40:02.013Z,13.26
2022-09-26T09:42:52.097Z,13.20
2022-09-26T09:45:40.020Z,13.26
2022-09-26T09:48:18.867Z,13.24
2022-09-26T09:51:17.135Z,13.30
2022-09-26T09:54:31.829Z,13.30
2022-09-26T09:57:40.061Z,13.30
2022-09-26T10:00:22.297Z,13.30
2022-09-26T10:03:19.368Z,13.32
2022-09-26T10:06:01.834Z,13.40
2022-09-26T10:08:44.833Z,13.40
2022-09-26T10:11:31.575Z,13.50
2022-09-26T10:15:04.802Z,13.60
2022-09-26T10:18:28.788Z,13.68
2022-09-26T10:21:19.074Z,13.70
2022-09-26T10:23:55.954Z,13.80
2022-09-26T10:26:54.164Z,13.82
2022-09-26T10:29:45.333Z,13.90
2022-09-26T10:32:22.574Z,14.00
2022-09-26T10:35:24.460Z,14.04
2022-09-26T10:38:19.238Z,14.10
2022-09-26T10:41:00.518Z,14.20
2022-09-26T10:43:39.713Z,14.30
2022-09-26T10:46:32.591Z,14.34
2022-09-26T10:50:03.114Z,14.40
2022-09-26T10:53:34.406Z,14.50
2022-09-26T10:56:23.601Z,14.50
2022-09-26T10:59:10.296Z,14.60
2022-09-26T11:01:56.676Z,14.70
2022-09-26T11:05:03.976Z,14.80
2022-09-26T11:08:06.849Z,14.90
2022-09-26T11:11:24.132Z,15.00
2022-09-26T11:14:09.088Z,15.00
2022-09-26T11:17:00.492Z,15.10
2022-09-26T11:19:54.627Z,15.10
2022-09-26T11:22:41.736Z,15.10
2022-09-26T11:25:25.520Z,15.20
2022-09-26T11:28:11.912Z,15.20
2022-09-26T11:31:14.404Z,15.20
2022-09-26T11:33:52.782Z,15.20
2022-09-26T11:37:14.197Z,15.20
2022-09-26T11:40:17.686Z,15.30
2022-09-26T11:43:17.825Z,15.40
2022-09-26T11:46:23.928Z,15.60
2022-09-26T11:49:45.281Z,15.70
2022-09-26T11:53:09.840Z,15.90
2022-09-26T11:56:12.847Z,16.10
2022-09-26T11:58:59.315Z,16.18
2022-09-26T12:01:48.900Z,16.30
2022-09-26T12:04:57.653Z,16.40
2022-09-26T12:07:49.640Z,16.60
2022-09-26T12:10:42.280Z,16.74
2022-09-26T12:13:38.148Z,16.90
2022-09-26T12:16:26.152Z,17.10
2022-09-26T12:19:20.942Z,17.20
2022-09-26T12:22:27.153Z,17.30
2022-09-26T12:25:31.173Z,17.40
2022-09-26T12:28:52.643Z,17.60
2022-09-26T12:31:51.482Z,17.76
2022-09-26T12:35:05.241Z,17.90
2022-09-26T12:38:21.684Z,18.00
2022-09-26T12:41:23.263Z,18.10
2022-09-26T12:44:46.702Z,18.24
2022-09-26T12:48:06.251Z,18.20
2022-09-26T12:51:01.179Z,18.30
2022-09-26T12:54:03.303Z,18.28
2022-09-26T12:56:54.799Z,18.10
2022-09-26T13:00:11.706Z,18.10
2022-09-26T13:03:50.938Z,18.06
2022-09-26T13:07:19.791Z,18.00
2022-09-26T13:10:28.052Z,17.80
2022-09-26T13:14:17.796Z,17.78
2022-09-26T13:17:10.616Z,17.80
2022-09-26T13:19:54.984Z,17.70
2022-09-26T13:22:42.525Z,17.80
2022-09-26T13:25:29.974Z,17.82
2022-09-26T13:28:17.749Z,17.90
2022-09-26T13:31:02.475Z,18.00
2022-09-26T13:33:46.598Z,18.00
2022-09-26T13:36:25.429Z,18.10
2022-09-26T13:39:10.634Z,18.20
2022-09-26T13:42:01.971Z,18.30
2022-09-26T13:45:04.125Z,18.40
2022-09-26T13:47:51.105Z,18.30
2022-09-26T13:50:37.641Z,18.20
2022-09-26T13:53:29.694Z,18.20
2022-09-26T13:56:49.684Z,18.16
2022-09-26T13:59:54.401Z,18.10
2022-09-26T14:02:32.956Z,17.96
2022-09-26T14:05:52.185Z,17.90
2022-09-26T14:08:55.326Z,17.80
2022-09-26T14:11:50.219Z,17.70
2022-09-26T14:14:49.440Z,17.60
2022-09-26T14:18:24.443Z,17.60
2022-09-26T14:21:38.553Z,17.50
2022-09-26T14:24:42.509Z,17.48
2022-09-26T14:27:49.507Z,17.50
2022-09-26T14:30:36.316Z,17.50
2022-09-26T14:33:17.813Z,17.50
2022-09-26T14:36:14.213Z,17.42
2022-09-26T14:38:55.279Z,17.40
2022-09-26T14:41:37.075Z,17.40
2022-09-26T14:44:24.538Z,17.40
2022-09-26T14:47:05.770Z,17.30
2022-09-26T14:49:42.526Z,17.28
2022-09-26T14:52:25.367Z,17.20
2022-09-26T14:55:07.102Z,17.10
2022-09-26T14:57:41.979Z,17.10
2022-09-26T15:00:44.608Z,17.00
2022-09-26T15:03:22.860Z,16.90
2022-09-26T15:06:03.563Z,16.78
2022-09-26T15:08:41.718Z,16.60
2022-09-26T15:11:42.486Z,16.48
2022-09-26T15:14:33.242Z,16.30
2022-09-26T15:17:17.891Z,16.20
2022-09-26T15:20:00.527Z,16.10
2022-09-26T15:22:39.704Z,16.08
2022-09-26T15:25:34.697Z,16.00
2022-09-26T15:28:12.741Z,15.90
2022-09-26T15:30:50.882Z,15.80
2022-09-26T15:33:27.638Z,15.70
2022-09-26T15:36:08.574Z,15.68
2022-09-26T15:38:47.354Z,15.60
2022-09-26T15:41:42.386Z,15.50
2022-09-26T15:44:34.871Z,15.40
2022-09-26T15:47:43.869Z,15.30
2022-09-26T15:50:26.320Z,15.22
2022-09-26T15:53:19.300Z,15.20
2022-09-26T15:56:02.609Z,15.10
2022-09-26T15:58:47.626Z,15.00
2022-09-26T16:01:27.639Z,14.92
2022-09-26T16:04:15.328Z,14.90
2022-09-26T16:10:31.211Z,14.70
2022-09-26T16:13:22.357Z,14.60
2022-09-26T16:16:10.023Z,14.50
2022-09-26T16:18:59.683Z,14.40
2022-09-26T16:21:39.299Z,14.20
2022-09-26T16:24:36.773Z,14.10
2022-09-26T16:27:26.859Z,14.00
2022-09-26T16:30:05.431Z,13.90
2022-09-26T16:32:42.493Z,13.78
2022-09-26T16:35:29.563Z,13.60
2022-09-26T16:38:28.269Z,13.50
2022-09-26T16:41:09.773Z,13.40
2022-09-26T16:43:55.225Z,13.30
2022-09-26T16:46:38.955Z,13.10
2022-09-26T16:49:49.262Z,13.00
2022-09-26T16:52:35.978Z,12.90
2022-09-26T16:55:15.169Z,12.80
2022-09-26T16:57:58.675Z,12.70
2022-09-26T17:00:55.701Z,12.54
2022-09-26T17:03:36.623Z,12.48
2022-09-26T17:06:13.571Z,12.36
2022-09-26T17:08:50.254Z,12.30
2022-09-26T17:11:33.569Z,12.20
2022-09-26T17:14:13.828Z,12.10
2022-09-26T17:16:55.547Z,12.00
2022-09-26T17:19:39.425Z,11.90
2022-09-26T17:22:19.684Z,11.80
2022-09-26T17:24:57.241Z,11.80
2022-09-26T17:27:38.594Z,11.70
2022-09-26T17:30:22.817Z,11.60
2022-09-26T17:32:59.987Z,11.50
2022-09-26T17:35:37.973Z,11.50
2022-09-26T17:38:19.577Z,11.44
2022-09-26T17:40:56.206Z,11.40
2022-09-26T17:43:34.064Z,11.30
2022-09-26T17:46:15.900Z,11.30
2022-09-26T17:48:54.739Z,11.20
2022-09-26T17:51:31.306Z,11.20
2022-09-26T17:54:10.291Z,11.10
2022-09-26T17:56:48.291Z,11.10
2022-09-26T17:59:28.697Z,11.04
2022-09-26T18:02:24.460Z,11.00
2022-09-26T18:05:06.029Z,11.00
2022-09-26T18:07:44.584Z,10.90
2022-09-26T18:10:28.500Z,10.90
2022-09-26T18:13:13.570Z,10.80
2022-09-26T18:15:52.402Z,10.80
2022-09-26T18:18:32.406Z,10.80
2022-09-26T18:21:19.682Z,10.80
2022-09-26T18:24:00.918Z,10.70
2022-09-26T18:26:42.305Z,10.70
2022-09-26T18:29:26.885Z,10.70
2022-09-26T18:32:06.802Z,10.70
2022-09-26T18:34:44.343Z,10.70
2022-09-26T18:37:21.213Z,10.68
2022-09-26T18:40:02.952Z,10.60
2022-09-26T18:42:44.008Z,10.60
2022-09-26T18:45:27.989Z,10.60
2022-09-26T18:48:07.729Z,10.60
2022-09-26T18:50:47.368Z,10.60
2022-09-26T18:53:35.004Z,10.60
2022-09-26T18:56:31.084Z,10.58
2022-09-26T18:59:09.546Z,10.50
2022-09-26T19:01:50.898Z,10.50
2022-09-26T19:04:30.438Z,10.50
2022-09-26T19:07:16.116Z,10.50
2022-09-26T19:09:57.133Z,10.50
2022-09-26T19:12:39.094Z,10.50
2022-09-26T19:15:20.372Z,10.50
2022-09-26T19:17:59.286Z,10.50
2022-09-26T19:20:35.968Z,10.40
2022-09-26T19:23:17.420Z,10.40
2022-09-26T19:25:54.881Z,10.40
2022-09-26T19:28:37.314Z,10.40
2022-09-26T19:31:15.013Z,10.34
2022-09-26T19:33:53.847Z,10.30
2022-09-26T19:36:30.850Z,10.30
2022-09-26T19:39:10.856Z,10.20
2022-09-26T19:41:47.513Z,10.20
2022-09-26T19:44:24.488Z,10.10
2022-09-26T19:47:03.098Z,10.10
2022-09-26T19:49:42.810Z,10.00
2022-09-26T19:52:24.679Z,9.96
2022-09-26T19:55:01.547Z,9.90
2022-09-26T19:57:38.666Z,9.86
2022-09-26T20:00:19.593Z,9.80
2022-09-26T20:02:57.085Z,9.70
2022-09-26T20:05:33.705Z,9.70
2022-09-26T20:08:17.091Z,9.60
2022-09-26T20:10:54.805Z,9.50
2022-09-26T20:13:51.343Z,9.50
2022-09-26T20:16:28.850Z,9.40
2022-09-26T20:19:09.163Z,9.40
2022-09-26T20:21:46.422Z,9.30
2022-09-26T20:24:23.582Z,9.30
2022-09-26T20:27:03.167Z,9.20
2022-09-26T20:29:57.344Z,9.20
2022-09-26T20:32:34.012Z,9.10
2022-09-26T20:35:16.339Z,9.10
2022-09-26T20:37:53.447Z,9.00
2022-09-26T20:40:32.167Z,8.98
2022-09-26T20:43:14.587Z,8.90
2022-09-26T20:45:51.174Z,8.86
2022-09-26T20:48:30.900Z,8.80
2022-09-26T20:51:16.900Z,8.78
2022-09-26T20:53:54.037Z,8.70
2022-09-26T20:56:30.796Z,8.70
2022-09-26T20:59:08.599Z,8.70
2022-09-26T21:01:45.252Z,8.60
2022-09-26T21:04:33.771Z,8.60
2022-09-26T21:07:13.924Z,8.58
2022-09-26T21:09:50.917Z,8.50
2022-09-26T21:12:27.930Z,8.50
2022-09-26T21:15:04.192Z,8.50
2022-09-26T21:17:40.751Z,8.40
2022-09-26T21:20:25.253Z,8.40
2022-09-26T21:23:17.403Z,8.34
2022-09-26T21:25:53.766Z,8.30
2022-09-26T21:28:31.793Z,8.30
2022-09-26T21:31:12.099Z,8.30
2022-09-26T21:33:49.676Z,8.30
2022-09-26T21:36:30.452Z,8.30
2022-09-26T21:39:10.772Z,8.30
2022-09-26T21:41:49.578Z,8.28
2022-09-26T21:44:34.084Z,8.22
2022-09-26T21:47:11.011Z,8.26
2022-09-26T21:49:49.021Z,8.20
2022-09-26T21:52:35.188Z,8.20
2022-09-26T21:55:22.685Z,8.20
2022-09-26T21:58:04.149Z,8.20
2022-09-26T22:00:40.762Z,8.20
2022-09-26T22:03:17.173Z,8.20
2022-09-26T22:05:53.570Z,8.20
2022-09-26T22:08:31.015Z,8.20
2022-09-26T22:11:09.394Z,8.20
2022-09-26T22:13:45.944Z,8.20
2022-09-26T22:16:23.277Z,8.20
2022-09-26T22:18:59.621Z,8.20
2022-09-26T22:21:36.015Z,8.18
2022-09-26T22:24:13.265Z,8.20
2022-09-26T22:26:50.743Z,8.10
2022-09-26T22:29:27.441Z,8.10
2022-09-26T22:32:04.989Z,8.10
2022-09-26T22:34:41.594Z,8.10
2022-09-26T22:37:18.261Z,8.10
2022-09-26T22:39:54.683Z,8.10
2022-09-26T22:42:31.316Z,8.10
2022-09-26T22:45:08.586Z,8.10
2022-09-26T22:47:45.107Z,8.04
2022-09-26T22:50:21.755Z,8.00
2022-09-26T22:52:58.973Z,8.00
2022-09-26T22:55:35.449Z,8.00
2022-09-26T22:58:12.658Z,8.00
2022-09-26T23:00:49.190Z,7.92
2022-09-26T23:03:25.610Z,7.90
2022-09-26T23:06:02.404Z,7.90
2022-09-26T23:08:40.116Z,7.90
2022-09-26T23:11:18.920Z,7.90
2022-09-26T23:13:56.641Z,7.90
2022-09-26T23:16:33.369Z,7.90
2022-09-26T23:19:10.247Z,7.90
2022-09-26T23:21:47.222Z,7.90
2022-09-26T23:24:24.936Z,7.90
2022-09-26T23:27:03.178Z,7.84
2022-09-26T23:29:39.614Z,7.80
2022-09-26T23:32:16.038Z,7.80
2022-09-26T23:34:52.450Z,7.80
2022-09-26T23:37:28.813Z,7.80
2022-09-26T23:40:06.828Z,7.80
2022-09-26T23:42:43.448Z,7.80
2022-09-26T23:45:20.079Z,7.80
2022-09-26T23:47:56.628Z,7.80
2022-09-26T23:50:33.095Z,7.80
2022-09-26T23:53:10.098Z,7.80
2022-09-26T23:55:46.612Z,7.86
2022-09-26T23:58:22.869Z,7.88
